RYR124 LMML-LCPH
Flight info
| Callsign | RYR124 |
|---|---|
| Flight time | 2h 10m |
| Altitude | 39000 |
| Route | GODAK L874 RUDOG/N0462F370 DCT NEVIK DCT TOSKA DCT TOBAL |
| Aircraft | B738/M-SDE2E3FGHIRWXY/LB1 |
Departure
| Time | 2026-04-17 05:46 |
|---|---|
| Airport | Malta International Airport (LMML) |
Arrival
| Time | 2026-04-17 07:56 |
|---|---|
| Airport | Paphos International Airport (LCPH) |
| Time | Latitude | Longitude | Altitude | Speed | Heading |
|---|---|---|---|---|---|
| 2026-04-17 05:32 | 35.84644 | 14.49487 | 258 ft | 0 kts | 225° |
| 2026-04-17 05:41 | 35.84642 | 14.49485 | 258 ft | 1 kts | 225° |
| 2026-04-17 05:42 | 35.84627 | 14.49467 | 258 ft | 5 kts | 219° |
| 2026-04-17 05:42 | 35.84592 | 14.49484 | 258 ft | 7 kts | 131° |
| 2026-04-17 05:42 | 35.84549 | 14.49535 | 258 ft | 10 kts | 135° |
| 2026-04-17 05:42 | 35.84495 | 14.49594 | 258 ft | 11 kts | 143° |
| 2026-04-17 05:43 | 35.84423 | 14.49641 | 257 ft | 12 kts | 169° |
| 2026-04-17 05:43 | 35.84336 | 14.49667 | 256 ft | 14 kts | 166° |
| 2026-04-17 05:43 | 35.84245 | 14.49700 | 255 ft | 13 kts | 165° |
| 2026-04-17 05:43 | 35.84159 | 14.49747 | 254 ft | 14 kts | 151° |
| 2026-04-17 05:44 | 35.84074 | 14.49822 | 254 ft | 16 kts | 134° |
| 2026-04-17 05:44 | 35.83993 | 14.49924 | 254 ft | 18 kts | 134° |
| 2026-04-17 05:44 | 35.83901 | 14.50037 | 254 ft | 20 kts | 135° |
| 2026-04-17 05:44 | 35.83835 | 14.50148 | 254 ft | 10 kts | 103° |
| 2026-04-17 05:45 | 35.83820 | 14.50161 | 254 ft | 1 kts | 201° |
| 2026-04-17 05:45 | 35.83816 | 14.50149 | 254 ft | 2 kts | 260° |
| 2026-04-17 05:45 | 35.83824 | 14.50134 | 254 ft | 0 kts | 314° |
| 2026-04-17 05:45 | 35.83826 | 14.50131 | 254 ft | 6 kts | 314° |
| 2026-04-17 05:46 | 35.84062 | 14.49838 | 254 ft | 89 kts | 315° |
| 2026-04-17 05:46 | 35.84677 | 14.49083 | 279 ft | 156 kts | 315° |
| 2026-04-17 05:46 | 35.85520 | 14.48036 | 826 ft | 178 kts | 312° |
| 2026-04-17 05:46 | 35.86301 | 14.46893 | 1959 ft | 174 kts | 315° |
| 2026-04-17 05:47 | 35.87155 | 14.45729 | 2567 ft | 196 kts | 312° |
| 2026-04-17 05:47 | 35.88055 | 14.44336 | 2905 ft | 220 kts | 311° |
| 2026-04-17 05:47 | 35.89071 | 14.42775 | 3110 ft | 251 kts | 311° |
| 2026-04-17 05:47 | 35.90214 | 14.41013 | 3620 ft | 269 kts | 311° |
| 2026-04-17 05:48 | 35.91364 | 14.39222 | 4748 ft | 266 kts | 311° |
| 2026-04-17 05:48 | 35.92522 | 14.37414 | 5635 ft | 270 kts | 309° |
| 2026-04-17 05:48 | 35.93361 | 14.35294 | 6518 ft | 279 kts | 282° |
| 2026-04-17 05:48 | 35.93266 | 14.32879 | 7338 ft | 287 kts | 254° |
| 2026-04-17 05:49 | 35.92275 | 14.30732 | 8149 ft | 293 kts | 226° |
| 2026-04-17 05:49 | 35.90610 | 14.29374 | 9040 ft | 290 kts | 197° |
| 2026-04-17 05:49 | 35.88625 | 14.29099 | 9905 ft | 290 kts | 169° |
| 2026-04-17 05:49 | 35.86724 | 14.29952 | 10461 ft | 299 kts | 145° |
| 2026-04-17 05:50 | 35.85217 | 14.31821 | 10632 ft | 320 kts | 120° |
| 2026-04-17 05:50 | 35.84365 | 14.34438 | 10803 ft | 340 kts | 95° |
| 2026-04-17 05:50 | 35.84415 | 14.37398 | 11149 ft | 353 kts | 81° |
| 2026-04-17 05:50 | 35.84684 | 14.40448 | 11685 ft | 363 kts | 88° |
| 2026-04-17 05:51 | 35.84167 | 14.43506 | 12360 ft | 372 kts | 114° |
| 2026-04-17 05:51 | 35.82963 | 14.46349 | 13051 ft | 376 kts | 112° |
| 2026-04-17 05:51 | 35.82110 | 14.49409 | 13688 ft | 380 kts | 102° |
| 2026-04-17 05:51 | 35.81518 | 14.52606 | 14294 ft | 385 kts | 99° |
| 2026-04-17 05:52 | 35.81005 | 14.55846 | 14939 ft | 388 kts | 99° |
| 2026-04-17 05:52 | 35.80510 | 14.59083 | 15569 ft | 391 kts | 98° |
| 2026-04-17 05:52 | 35.80004 | 14.62393 | 16164 ft | 395 kts | 99° |
| 2026-04-17 05:52 | 35.79487 | 14.65743 | 16747 ft | 399 kts | 98° |
| 2026-04-17 05:53 | 35.78959 | 14.69115 | 17356 ft | 403 kts | 99° |
| 2026-04-17 05:53 | 35.78420 | 14.72524 | 17925 ft | 407 kts | 99° |
| 2026-04-17 05:53 | 35.77871 | 14.75967 | 18466 ft | 411 kts | 99° |
| 2026-04-17 05:53 | 35.77317 | 14.79425 | 19010 ft | 413 kts | 99° |
| 2026-04-17 05:54 | 35.76756 | 14.82908 | 19554 ft | 416 kts | 99° |
| 2026-04-17 05:54 | 35.76190 | 14.86415 | 20061 ft | 419 kts | 99° |
| 2026-04-17 05:54 | 35.75620 | 14.89936 | 20596 ft | 421 kts | 99° |
| 2026-04-17 05:54 | 35.75046 | 14.93481 | 21120 ft | 423 kts | 99° |
| 2026-04-17 05:55 | 35.74473 | 14.97013 | 21622 ft | 425 kts | 99° |
| 2026-04-17 05:55 | 35.73892 | 15.00587 | 22104 ft | 428 kts | 99° |
| 2026-04-17 05:55 | 35.73304 | 15.04197 | 22571 ft | 431 kts | 99° |
| 2026-04-17 05:55 | 35.72712 | 15.07828 | 23017 ft | 434 kts | 99° |
| 2026-04-17 05:56 | 35.72115 | 15.11480 | 23475 ft | 437 kts | 99° |
| 2026-04-17 05:56 | 35.71512 | 15.15156 | 23876 ft | 439 kts | 99° |
| 2026-04-17 05:56 | 35.70910 | 15.18828 | 24291 ft | 440 kts | 99° |
| 2026-04-17 05:56 | 35.70300 | 15.22533 | 24694 ft | 442 kts | 99° |
| 2026-04-17 05:57 | 35.69688 | 15.26246 | 25082 ft | 443 kts | 99° |
| 2026-04-17 05:57 | 35.69072 | 15.29974 | 25471 ft | 445 kts | 99° |
| 2026-04-17 05:57 | 35.68454 | 15.33708 | 25875 ft | 445 kts | 99° |
| 2026-04-17 05:57 | 35.67833 | 15.37453 | 26221 ft | 448 kts | 99° |
| 2026-04-17 05:58 | 35.67216 | 15.41166 | 26539 ft | 450 kts | 99° |
| 2026-04-17 05:58 | 35.66587 | 15.44947 | 26876 ft | 452 kts | 99° |
| 2026-04-17 05:58 | 35.65954 | 15.48738 | 27202 ft | 454 kts | 99° |
| 2026-04-17 05:59 | 35.64677 | 15.56375 | 27828 ft | 457 kts | 99° |
| 2026-04-17 05:59 | 35.64033 | 15.60213 | 28209 ft | 457 kts | 99° |
| 2026-04-17 05:59 | 35.63438 | 15.64037 | 28702 ft | 454 kts | 97° |
| 2026-04-17 05:59 | 35.62963 | 15.67816 | 29223 ft | 451 kts | 96° |
| 2026-04-17 06:00 | 35.62533 | 15.71663 | 29616 ft | 451 kts | 96° |
| 2026-04-17 06:00 | 35.62120 | 15.75497 | 30070 ft | 449 kts | 96° |
| 2026-04-17 06:00 | 35.61708 | 15.79293 | 30523 ft | 446 kts | 96° |
| 2026-04-17 06:00 | 35.61288 | 15.83072 | 30815 ft | 447 kts | 96° |
| 2026-04-17 06:01 | 35.60855 | 15.86873 | 31101 ft | 448 kts | 96° |
| 2026-04-17 06:01 | 35.60418 | 15.90650 | 31512 ft | 445 kts | 97° |
| 2026-04-17 06:01 | 35.59977 | 15.94409 | 31841 ft | 445 kts | 97° |
| 2026-04-17 06:01 | 35.59533 | 15.98173 | 32183 ft | 444 kts | 96° |
| 2026-04-17 06:02 | 35.59089 | 16.01919 | 32610 ft | 441 kts | 97° |
| 2026-04-17 06:02 | 35.58647 | 16.05633 | 32990 ft | 439 kts | 97° |
| 2026-04-17 06:02 | 35.58211 | 16.09293 | 33342 ft | 438 kts | 96° |
| 2026-04-17 06:02 | 35.57769 | 16.12990 | 33646 ft | 438 kts | 97° |
| 2026-04-17 06:03 | 35.57323 | 16.16711 | 33941 ft | 437 kts | 96° |
| 2026-04-17 06:03 | 35.56882 | 16.20385 | 34332 ft | 434 kts | 97° |
| 2026-04-17 06:03 | 35.56441 | 16.24065 | 34444 ft | 437 kts | 96° |
| 2026-04-17 06:03 | 35.55995 | 16.27778 | 34594 ft | 440 kts | 96° |
| 2026-04-17 06:04 | 35.55545 | 16.31491 | 34804 ft | 440 kts | 96° |
| 2026-04-17 06:04 | 35.55092 | 16.35222 | 34917 ft | 443 kts | 97° |
| 2026-04-17 06:04 | 35.54635 | 16.38978 | 35030 ft | 446 kts | 96° |
| 2026-04-17 06:04 | 35.54175 | 16.42750 | 35202 ft | 447 kts | 96° |
| 2026-04-17 06:05 | 35.53712 | 16.46535 | 35310 ft | 450 kts | 96° |
| 2026-04-17 06:05 | 35.53246 | 16.50350 | 35547 ft | 450 kts | 96° |
| 2026-04-17 06:05 | 35.52778 | 16.54150 | 35696 ft | 452 kts | 97° |
| 2026-04-17 06:06 | 35.51839 | 16.61778 | 35954 ft | 456 kts | 96° |
| 2026-04-17 06:06 | 35.51360 | 16.65626 | 36129 ft | 456 kts | 97° |
| 2026-04-17 06:06 | 35.50879 | 16.69489 | 36276 ft | 458 kts | 97° |
| 2026-04-17 06:06 | 35.50396 | 16.73360 | 36388 ft | 461 kts | 98° |
| 2026-04-17 06:07 | 35.49910 | 16.77250 | 36533 ft | 461 kts | 98° |
| 2026-04-17 06:07 | 35.49422 | 16.81149 | 36723 ft | 462 kts | 97° |
| 2026-04-17 06:07 | 35.48932 | 16.85056 | 36826 ft | 464 kts | 96° |
| 2026-04-17 06:07 | 35.48439 | 16.88962 | 37061 ft | 463 kts | 97° |
| 2026-04-17 06:08 | 35.47945 | 16.92873 | 37198 ft | 465 kts | 97° |
| 2026-04-17 06:08 | 35.47447 | 16.96809 | 37327 ft | 466 kts | 96° |
| 2026-04-17 06:08 | 35.46950 | 17.00728 | 37578 ft | 465 kts | 97° |
| 2026-04-17 06:09 | 35.45946 | 17.08611 | 37840 ft | 467 kts | 97° |
| 2026-04-17 06:09 | 35.45451 | 17.12486 | 38032 ft | 467 kts | 96° |
| 2026-04-17 06:09 | 35.44946 | 17.16436 | 38130 ft | 469 kts | 98° |
| 2026-04-17 06:09 | 35.44437 | 17.20390 | 38281 ft | 469 kts | 98° |
| 2026-04-17 06:10 | 35.43928 | 17.24347 | 38422 ft | 470 kts | 97° |
| 2026-04-17 06:10 | 35.43034 | 17.32299 | 38694 ft | 470 kts | 92° |
| 2026-04-17 06:10 | 35.42817 | 17.36296 | 38803 ft | 470 kts | 91° |
| 2026-04-17 06:11 | 35.42662 | 17.40287 | 38980 ft | 467 kts | 92° |
| 2026-04-17 06:11 | 35.42376 | 17.48304 | 38952 ft | 472 kts | 91° |
| 2026-04-17 06:12 | 35.42045 | 17.56373 | 38950 ft | 475 kts | 91° |
| 2026-04-17 06:12 | 35.41675 | 17.64409 | 38951 ft | 476 kts | 91° |
| 2026-04-17 06:13 | 35.41282 | 17.72529 | 38951 ft | 477 kts | 92° |
| 2026-04-17 06:13 | 35.40881 | 17.80650 | 38949 ft | 476 kts | 92° |
| 2026-04-17 06:14 | 35.40557 | 17.87166 | 38929 ft | 472 kts | 92° |
| 2026-04-17 06:14 | 35.40164 | 17.95038 | 38929 ft | 464 kts | 91° |
| 2026-04-17 06:15 | 35.39771 | 18.02845 | 38940 ft | 461 kts | 91° |
| 2026-04-17 06:15 | 35.39368 | 18.10723 | 38945 ft | 465 kts | 92° |
| 2026-04-17 06:16 | 35.38956 | 18.18666 | 38944 ft | 470 kts | 91° |
| 2026-04-17 06:16 | 35.38533 | 18.26691 | 38938 ft | 474 kts | 92° |
| 2026-04-17 06:17 | 35.38103 | 18.34754 | 38919 ft | 473 kts | 91° |
| 2026-04-17 06:17 | 35.37672 | 18.42756 | 38928 ft | 467 kts | 92° |
| 2026-04-17 06:18 | 35.37240 | 18.50676 | 38920 ft | 462 kts | 92° |
| 2026-04-17 06:18 | 35.36806 | 18.58517 | 38925 ft | 463 kts | 92° |
| 2026-04-17 06:19 | 35.36365 | 18.66425 | 38932 ft | 467 kts | 92° |
| 2026-04-17 06:19 | 35.35913 | 18.74409 | 38930 ft | 471 kts | 93° |
| 2026-04-17 06:20 | 35.35457 | 18.82394 | 38934 ft | 475 kts | 93° |
| 2026-04-17 06:20 | 35.34988 | 18.90477 | 38919 ft | 475 kts | 93° |
| 2026-04-17 06:21 | 35.34518 | 18.98495 | 38908 ft | 468 kts | 93° |
| 2026-04-17 06:21 | 35.34049 | 19.06405 | 38921 ft | 464 kts | 93° |
| 2026-04-17 06:22 | 35.33578 | 19.14280 | 38919 ft | 463 kts | 93° |
| 2026-04-17 06:22 | 35.33103 | 19.22127 | 38930 ft | 462 kts | 93° |
| 2026-04-17 06:23 | 35.32623 | 19.29982 | 38928 ft | 463 kts | 93° |
| 2026-04-17 06:23 | 35.32136 | 19.37859 | 38929 ft | 465 kts | 93° |
| 2026-04-17 06:24 | 35.31641 | 19.45774 | 38928 ft | 467 kts | 94° |
| 2026-04-17 06:24 | 35.31143 | 19.53663 | 38921 ft | 469 kts | 94° |
| 2026-04-17 06:25 | 35.30633 | 19.61650 | 38922 ft | 471 kts | 94° |
| 2026-04-17 06:25 | 35.30118 | 19.69645 | 38920 ft | 472 kts | 94° |
| 2026-04-17 06:26 | 35.29594 | 19.77677 | 38917 ft | 474 kts | 94° |
| 2026-04-17 06:26 | 35.29065 | 19.85721 | 38911 ft | 475 kts | 94° |
| 2026-04-17 06:27 | 35.28528 | 19.93791 | 38919 ft | 476 kts | 94° |
| 2026-04-17 06:27 | 35.27985 | 20.01871 | 38907 ft | 476 kts | 94° |
| 2026-04-17 06:28 | 35.27437 | 20.09947 | 38911 ft | 476 kts | 94° |
| 2026-04-17 06:28 | 35.26884 | 20.18029 | 38916 ft | 476 kts | 94° |
| 2026-04-17 06:29 | 35.26329 | 20.26044 | 38915 ft | 475 kts | 94° |
| 2026-04-17 06:29 | 35.25767 | 20.34098 | 38909 ft | 474 kts | 94° |
| 2026-04-17 06:30 | 35.25200 | 20.42121 | 38902 ft | 473 kts | 94° |
| 2026-04-17 06:30 | 35.24629 | 20.50148 | 38900 ft | 473 kts | 94° |
| 2026-04-17 06:31 | 35.24054 | 20.58147 | 38896 ft | 472 kts | 94° |
| 2026-04-17 06:31 | 35.23474 | 20.66151 | 38901 ft | 471 kts | 95° |
| 2026-04-17 06:32 | 35.22887 | 20.74156 | 38905 ft | 472 kts | 95° |
| 2026-04-17 06:32 | 35.22295 | 20.82178 | 38896 ft | 473 kts | 95° |
| 2026-04-17 06:33 | 35.21698 | 20.90183 | 38883 ft | 474 kts | 95° |
| 2026-04-17 06:33 | 35.21094 | 20.98221 | 38888 ft | 475 kts | 95° |
| 2026-04-17 06:34 | 35.20485 | 21.06239 | 38900 ft | 477 kts | 95° |
| 2026-04-17 06:34 | 35.19866 | 21.14322 | 38882 ft | 478 kts | 95° |
| 2026-04-17 06:35 | 35.19241 | 21.22418 | 38872 ft | 477 kts | 95° |
| 2026-04-17 06:35 | 35.18613 | 21.30484 | 38872 ft | 477 kts | 95° |
| 2026-04-17 06:36 | 35.17980 | 21.38541 | 38880 ft | 476 kts | 95° |
| 2026-04-17 06:36 | 35.17341 | 21.46602 | 38879 ft | 476 kts | 95° |
| 2026-04-17 06:37 | 35.16697 | 21.54658 | 38864 ft | 476 kts | 95° |
| 2026-04-17 06:37 | 35.16047 | 21.62721 | 38856 ft | 476 kts | 95° |
| 2026-04-17 06:38 | 35.15399 | 21.70690 | 38869 ft | 475 kts | 95° |
| 2026-04-17 06:38 | 35.14739 | 21.78753 | 38876 ft | 475 kts | 95° |
| 2026-04-17 06:39 | 35.14074 | 21.86806 | 38869 ft | 476 kts | 96° |
| 2026-04-17 06:39 | 35.13408 | 21.94816 | 38850 ft | 477 kts | 95° |
| 2026-04-17 06:40 | 35.13205 | 22.02915 | 38853 ft | 477 kts | 89° |
| 2026-04-17 06:40 | 35.13370 | 22.11010 | 38851 ft | 477 kts | 88° |
| 2026-04-17 06:41 | 35.13537 | 22.19136 | 38863 ft | 478 kts | 89° |
| 2026-04-17 06:41 | 35.13649 | 22.27270 | 38863 ft | 478 kts | 89° |
| 2026-04-17 06:42 | 35.13728 | 22.35341 | 38845 ft | 478 kts | 89° |
| 2026-04-17 06:42 | 35.13796 | 22.43462 | 38840 ft | 476 kts | 89° |
| 2026-04-17 06:43 | 35.13860 | 22.51549 | 38827 ft | 475 kts | 89° |
| 2026-04-17 06:43 | 35.13919 | 22.59545 | 38821 ft | 473 kts | 89° |
| 2026-04-17 06:44 | 35.13975 | 22.67604 | 38830 ft | 475 kts | 89° |
| 2026-04-17 06:44 | 35.14025 | 22.75681 | 38837 ft | 475 kts | 90° |
| 2026-04-17 06:45 | 35.14070 | 22.83781 | 38831 ft | 477 kts | 90° |
| 2026-04-17 06:45 | 35.14109 | 22.91903 | 38814 ft | 479 kts | 90° |
| 2026-04-17 06:46 | 35.14143 | 23.00008 | 38798 ft | 481 kts | 90° |
| 2026-04-17 06:46 | 35.14172 | 23.08188 | 38796 ft | 481 kts | 90° |
| 2026-04-17 06:47 | 35.14195 | 23.16370 | 38798 ft | 481 kts | 90° |
| 2026-04-17 06:47 | 35.14213 | 23.24553 | 38793 ft | 481 kts | 90° |
| 2026-04-17 06:48 | 35.14225 | 23.32730 | 38802 ft | 480 kts | 90° |
| 2026-04-17 06:48 | 35.14232 | 23.40827 | 38784 ft | 478 kts | 90° |
| 2026-04-17 06:49 | 35.14234 | 23.48913 | 38768 ft | 474 kts | 90° |
| 2026-04-17 06:49 | 35.14230 | 23.56936 | 38760 ft | 471 kts | 90° |
| 2026-04-17 06:50 | 35.14220 | 23.64968 | 38773 ft | 473 kts | 90° |
| 2026-04-17 06:50 | 35.14205 | 23.73045 | 38783 ft | 476 kts | 90° |
| 2026-04-17 06:51 | 35.14186 | 23.81160 | 38778 ft | 478 kts | 91° |
| 2026-04-17 06:51 | 35.14160 | 23.89283 | 38764 ft | 477 kts | 90° |
| 2026-04-17 06:52 | 35.14129 | 23.97362 | 38766 ft | 474 kts | 91° |
| 2026-04-17 06:52 | 35.14093 | 24.05403 | 38777 ft | 472 kts | 91° |
| 2026-04-17 06:53 | 35.14050 | 24.13424 | 38776 ft | 473 kts | 91° |
| 2026-04-17 06:53 | 35.14006 | 24.21454 | 38789 ft | 476 kts | 91° |
| 2026-04-17 06:54 | 35.13954 | 24.29581 | 38783 ft | 478 kts | 91° |
| 2026-04-17 06:54 | 35.13895 | 24.37672 | 38773 ft | 479 kts | 92° |
| 2026-04-17 06:55 | 35.13831 | 24.45809 | 38757 ft | 478 kts | 92° |
| 2026-04-17 06:55 | 35.13764 | 24.53894 | 38758 ft | 474 kts | 92° |
| 2026-04-17 06:56 | 35.13690 | 24.61928 | 38750 ft | 471 kts | 94° |
| 2026-04-17 06:56 | 35.13612 | 24.69916 | 38748 ft | 469 kts | 93° |
| 2026-04-17 06:57 | 35.13530 | 24.77893 | 38756 ft | 471 kts | 92° |
| 2026-04-17 06:57 | 35.13440 | 24.85950 | 38750 ft | 475 kts | 93° |
| 2026-04-17 06:58 | 35.13344 | 24.93981 | 38765 ft | 477 kts | 93° |
| 2026-04-17 06:58 | 35.13246 | 25.02098 | 38750 ft | 477 kts | 93° |
| 2026-04-17 06:59 | 35.13142 | 25.10174 | 38740 ft | 473 kts | 94° |
| 2026-04-17 06:59 | 35.13050 | 25.16853 | 38740 ft | 471 kts | 91° |
| 2026-04-17 07:00 | 35.12915 | 25.26146 | 38741 ft | 472 kts | 92° |
| 2026-04-17 07:00 | 35.12814 | 25.32877 | 38741 ft | 474 kts | 91° |
| 2026-04-17 07:01 | 35.12686 | 25.40899 | 38738 ft | 476 kts | 92° |
| 2026-04-17 07:01 | 35.12557 | 25.49010 | 38739 ft | 478 kts | 91° |
| 2026-04-17 07:02 | 35.12507 | 25.57141 | 38737 ft | 477 kts | 91° |
| 2026-04-17 07:02 | 35.12497 | 25.65203 | 38728 ft | 471 kts | 91° |
| 2026-04-17 07:03 | 35.12477 | 25.73141 | 38718 ft | 464 kts | 91° |
| 2026-04-17 07:03 | 35.12439 | 25.80983 | 38728 ft | 460 kts | 92° |
| 2026-04-17 07:04 | 35.12390 | 25.88845 | 38753 ft | 465 kts | 92° |
| 2026-04-17 07:04 | 35.12336 | 25.96799 | 38728 ft | 471 kts | 94° |
| 2026-04-17 07:05 | 35.12278 | 26.04797 | 38732 ft | 475 kts | 94° |
| 2026-04-17 07:05 | 35.12214 | 26.12912 | 38740 ft | 478 kts | 94° |
| 2026-04-17 07:06 | 35.12144 | 26.21016 | 38728 ft | 474 kts | 94° |
| 2026-04-17 07:06 | 35.12073 | 26.28972 | 38717 ft | 468 kts | 93° |
| 2026-04-17 07:07 | 35.11995 | 26.36926 | 38721 ft | 463 kts | 94° |
| 2026-04-17 07:07 | 35.11910 | 26.44822 | 38738 ft | 467 kts | 92° |
| 2026-04-17 07:08 | 35.11820 | 26.52748 | 38736 ft | 472 kts | 93° |
| 2026-04-17 07:08 | 35.11726 | 26.60795 | 38724 ft | 476 kts | 93° |
| 2026-04-17 07:09 | 35.11625 | 26.68892 | 38731 ft | 475 kts | 93° |
| 2026-04-17 07:09 | 35.11521 | 26.76894 | 38709 ft | 467 kts | 93° |
| 2026-04-17 07:10 | 35.11412 | 26.84815 | 38727 ft | 465 kts | 94° |
| 2026-04-17 07:10 | 35.11297 | 26.92696 | 38717 ft | 464 kts | 94° |
| 2026-04-17 07:11 | 35.11176 | 27.00597 | 38726 ft | 465 kts | 94° |
| 2026-04-17 07:11 | 35.11052 | 27.08457 | 38729 ft | 466 kts | 94° |
| 2026-04-17 07:12 | 35.10922 | 27.16375 | 38724 ft | 468 kts | 94° |
| 2026-04-17 07:12 | 35.10786 | 27.24350 | 38710 ft | 470 kts | 94° |
| 2026-04-17 07:13 | 35.10643 | 27.32357 | 38717 ft | 473 kts | 94° |
| 2026-04-17 07:13 | 35.10496 | 27.40398 | 38717 ft | 475 kts | 94° |
| 2026-04-17 07:14 | 35.10342 | 27.48477 | 38700 ft | 477 kts | 95° |
| 2026-04-17 07:14 | 35.10182 | 27.56594 | 38711 ft | 478 kts | 95° |
| 2026-04-17 07:15 | 35.10016 | 27.64724 | 38713 ft | 480 kts | 95° |
| 2026-04-17 07:15 | 35.09845 | 27.72881 | 38713 ft | 481 kts | 95° |
| 2026-04-17 07:16 | 35.09668 | 27.81048 | 38714 ft | 481 kts | 95° |
| 2026-04-17 07:16 | 35.09485 | 27.89218 | 38714 ft | 481 kts | 95° |
| 2026-04-17 07:17 | 35.09297 | 27.97387 | 38712 ft | 480 kts | 95° |
| 2026-04-17 07:17 | 35.09005 | 28.09577 | 38697 ft | 478 kts | 95° |
| 2026-04-17 07:18 | 35.08806 | 28.17643 | 38710 ft | 477 kts | 95° |
| 2026-04-17 07:18 | 35.08600 | 28.25726 | 38711 ft | 476 kts | 95° |
| 2026-04-17 07:19 | 35.08389 | 28.33802 | 38704 ft | 475 kts | 95° |
| 2026-04-17 07:19 | 35.08173 | 28.41879 | 38696 ft | 474 kts | 95° |
| 2026-04-17 07:20 | 35.07953 | 28.49924 | 38702 ft | 474 kts | 95° |
| 2026-04-17 07:20 | 35.07727 | 28.57979 | 38694 ft | 475 kts | 95° |
| 2026-04-17 07:21 | 35.07497 | 28.65989 | 38708 ft | 475 kts | 95° |
| 2026-04-17 07:21 | 35.07260 | 28.74046 | 38689 ft | 475 kts | 96° |
| 2026-04-17 07:22 | 35.07018 | 28.82116 | 38689 ft | 476 kts | 96° |
| 2026-04-17 07:22 | 35.06770 | 28.90191 | 38684 ft | 476 kts | 96° |
| 2026-04-17 07:23 | 35.06516 | 28.98283 | 38668 ft | 477 kts | 96° |
| 2026-04-17 07:23 | 35.06257 | 29.06371 | 38685 ft | 477 kts | 96° |
| 2026-04-17 07:24 | 35.05993 | 29.14464 | 38685 ft | 478 kts | 96° |
| 2026-04-17 07:24 | 35.05722 | 29.22584 | 38685 ft | 478 kts | 96° |
| 2026-04-17 07:25 | 35.05448 | 29.30642 | 38670 ft | 478 kts | 97° |
| 2026-04-17 07:25 | 35.05167 | 29.38749 | 38679 ft | 478 kts | 97° |
| 2026-04-17 07:26 | 35.04880 | 29.46872 | 38685 ft | 478 kts | 97° |
| 2026-04-17 07:26 | 35.04588 | 29.54967 | 38664 ft | 477 kts | 97° |
| 2026-04-17 07:27 | 35.04292 | 29.63047 | 38690 ft | 476 kts | 97° |
| 2026-04-17 07:27 | 35.03991 | 29.71114 | 38678 ft | 475 kts | 97° |
| 2026-04-17 07:28 | 35.03681 | 29.79161 | 38679 ft | 473 kts | 97° |
| 2026-04-17 07:28 | 35.03361 | 29.87196 | 38266 ft | 478 kts | 98° |
| 2026-04-17 07:29 | 35.03197 | 29.91242 | 37702 ft | 473 kts | 98° |
| 2026-04-17 07:29 | 35.03047 | 29.95167 | 37150 ft | 465 kts | 98° |
| 2026-04-17 07:29 | 35.02900 | 29.99084 | 36591 ft | 458 kts | 98° |
| 2026-04-17 07:29 | 35.02752 | 30.02931 | 36021 ft | 451 kts | 98° |
| 2026-04-17 07:30 | 35.02602 | 30.06728 | 35458 ft | 445 kts | 98° |
| 2026-04-17 07:30 | 35.02449 | 30.10523 | 34847 ft | 442 kts | 98° |
| 2026-04-17 07:30 | 35.02293 | 30.14274 | 34220 ft | 443 kts | 98° |
| 2026-04-17 07:30 | 35.02137 | 30.17978 | 33615 ft | 442 kts | 98° |
| 2026-04-17 07:31 | 35.01981 | 30.21706 | 32895 ft | 439 kts | 98° |
| 2026-04-17 07:31 | 35.01825 | 30.25417 | 32223 ft | 435 kts | 98° |
| 2026-04-17 07:31 | 35.01672 | 30.29071 | 31555 ft | 429 kts | 98° |
| 2026-04-17 07:31 | 35.01517 | 30.32701 | 30902 ft | 429 kts | 98° |
| 2026-04-17 07:32 | 35.01355 | 30.36379 | 30231 ft | 442 kts | 98° |
| 2026-04-17 07:32 | 35.01181 | 30.40209 | 29409 ft | 461 kts | 98° |
| 2026-04-17 07:32 | 35.01003 | 30.44165 | 28526 ft | 470 kts | 98° |
| 2026-04-17 07:32 | 35.00829 | 30.48139 | 27839 ft | 466 kts | 97° |
| 2026-04-17 07:33 | 35.00662 | 30.52061 | 27237 ft | 460 kts | 97° |
| 2026-04-17 07:33 | 35.00495 | 30.55935 | 26666 ft | 454 kts | 97° |
| 2026-04-17 07:33 | 35.00328 | 30.59750 | 26117 ft | 447 kts | 97° |
| 2026-04-17 07:33 | 35.00161 | 30.63513 | 25552 ft | 441 kts | 97° |
| 2026-04-17 07:34 | 34.99993 | 30.67227 | 24989 ft | 436 kts | 97° |
| 2026-04-17 07:34 | 34.99826 | 30.70899 | 24438 ft | 431 kts | 97° |
| 2026-04-17 07:34 | 34.99658 | 30.74521 | 23897 ft | 427 kts | 97° |
| 2026-04-17 07:34 | 34.99493 | 30.78077 | 23362 ft | 422 kts | 97° |
| 2026-04-17 07:35 | 34.99326 | 30.81641 | 22731 ft | 418 kts | 97° |
| 2026-04-17 07:35 | 34.99161 | 30.85159 | 22159 ft | 413 kts | 98° |
| 2026-04-17 07:35 | 34.98997 | 30.88638 | 21612 ft | 408 kts | 98° |
| 2026-04-17 07:35 | 34.98833 | 30.92084 | 21057 ft | 404 kts | 98° |
| 2026-04-17 07:36 | 34.98671 | 30.95488 | 20530 ft | 400 kts | 98° |
| 2026-04-17 07:36 | 34.98509 | 30.98843 | 19982 ft | 397 kts | 98° |
| 2026-04-17 07:36 | 34.98347 | 31.02192 | 19450 ft | 394 kts | 99° |
| 2026-04-17 07:36 | 34.98185 | 31.05518 | 18944 ft | 392 kts | 99° |
| 2026-04-17 07:37 | 34.98023 | 31.08829 | 18429 ft | 389 kts | 99° |
| 2026-04-17 07:37 | 34.97861 | 31.12116 | 17900 ft | 388 kts | 100° |
| 2026-04-17 07:37 | 34.97698 | 31.15395 | 17312 ft | 386 kts | 100° |
| 2026-04-17 07:37 | 34.97555 | 31.17551 | 16837 ft | 384 kts | 104° |
| 2026-04-17 07:38 | 34.96912 | 31.21771 | 15613 ft | 375 kts | 108° |
| 2026-04-17 07:38 | 34.96354 | 31.24856 | 14998 ft | 369 kts | 109° |
| 2026-04-17 07:38 | 34.95791 | 31.27899 | 14443 ft | 368 kts | 109° |
| 2026-04-17 07:38 | 34.95236 | 31.30933 | 13935 ft | 366 kts | 109° |
| 2026-04-17 07:39 | 34.94691 | 31.33963 | 13383 ft | 365 kts | 108° |
| 2026-04-17 07:39 | 34.94156 | 31.36979 | 12821 ft | 363 kts | 108° |
| 2026-04-17 07:39 | 34.93630 | 31.39981 | 12291 ft | 360 kts | 108° |
| 2026-04-17 07:39 | 34.93117 | 31.42921 | 11780 ft | 358 kts | 108° |
| 2026-04-17 07:40 | 34.92604 | 31.45871 | 11257 ft | 352 kts | 107° |
| 2026-04-17 07:40 | 34.92109 | 31.48738 | 10775 ft | 339 kts | 107° |
| 2026-04-17 07:40 | 34.91641 | 31.51461 | 10640 ft | 317 kts | 108° |
| 2026-04-17 07:40 | 34.91202 | 31.54010 | 10474 ft | 298 kts | 108° |
| 2026-04-17 07:41 | 34.90788 | 31.56405 | 10340 ft | 281 kts | 108° |
| 2026-04-17 07:41 | 34.90395 | 31.58669 | 10204 ft | 266 kts | 109° |
| 2026-04-17 07:41 | 34.90015 | 31.60836 | 9961 ft | 259 kts | 109° |
| 2026-04-17 07:41 | 34.89636 | 31.62978 | 9727 ft | 257 kts | 109° |
| 2026-04-17 07:42 | 34.89261 | 31.65095 | 9481 ft | 255 kts | 109° |
| 2026-04-17 07:42 | 34.88889 | 31.67202 | 9225 ft | 252 kts | 108° |
| 2026-04-17 07:42 | 34.88521 | 31.69282 | 8972 ft | 250 kts | 109° |
| 2026-04-17 07:42 | 34.88156 | 31.71350 | 8718 ft | 248 kts | 109° |
| 2026-04-17 07:43 | 34.87800 | 31.73370 | 8481 ft | 247 kts | 109° |
| 2026-04-17 07:43 | 34.87442 | 31.75402 | 8225 ft | 242 kts | 109° |
| 2026-04-17 07:43 | 34.87093 | 31.77388 | 7966 ft | 236 kts | 109° |
| 2026-04-17 07:43 | 34.86753 | 31.79317 | 7712 ft | 229 kts | 109° |
| 2026-04-17 07:44 | 34.86533 | 31.80567 | 7533 ft | 226 kts | 109° |
| 2026-04-17 07:44 | 34.86207 | 31.82411 | 7279 ft | 220 kts | 109° |
| 2026-04-17 07:44 | 34.85889 | 31.84210 | 7035 ft | 215 kts | 109° |
| 2026-04-17 07:44 | 34.85479 | 31.86531 | 6708 ft | 208 kts | 110° |
| 2026-04-17 07:45 | 34.85177 | 31.88234 | 6470 ft | 205 kts | 110° |
| 2026-04-17 07:45 | 34.84971 | 31.89387 | 6309 ft | 206 kts | 110° |
| 2026-04-17 07:45 | 34.84665 | 31.91097 | 6083 ft | 207 kts | 110° |
| 2026-04-17 07:45 | 34.84362 | 31.92794 | 5849 ft | 208 kts | 109° |
| 2026-04-17 07:46 | 34.84054 | 31.94520 | 5597 ft | 206 kts | 109° |
| 2026-04-17 07:46 | 34.83753 | 31.96213 | 5344 ft | 203 kts | 109° |
| 2026-04-17 07:46 | 34.83456 | 31.97885 | 5108 ft | 201 kts | 109° |
| 2026-04-17 07:46 | 34.83152 | 31.99576 | 4881 ft | 208 kts | 109° |
| 2026-04-17 07:47 | 34.82845 | 32.01291 | 4636 ft | 206 kts | 108° |
| 2026-04-17 07:47 | 34.82546 | 32.02973 | 4384 ft | 201 kts | 108° |
| 2026-04-17 07:47 | 34.82253 | 32.04618 | 4119 ft | 196 kts | 108° |
| 2026-04-17 07:47 | 34.81968 | 32.06219 | 3867 ft | 191 kts | 108° |
| 2026-04-17 07:48 | 34.81687 | 32.07788 | 3586 ft | 187 kts | 108° |
| 2026-04-17 07:48 | 34.81414 | 32.09311 | 3347 ft | 186 kts | 108° |
| 2026-04-17 07:48 | 34.81137 | 32.10856 | 3113 ft | 185 kts | 107° |
| 2026-04-17 07:48 | 34.80866 | 32.12367 | 2894 ft | 180 kts | 107° |
| 2026-04-17 07:49 | 34.80602 | 32.13839 | 2637 ft | 177 kts | 107° |
| 2026-04-17 07:49 | 34.80341 | 32.15290 | 2386 ft | 174 kts | 106° |
| 2026-04-17 07:49 | 34.80083 | 32.16721 | 2144 ft | 173 kts | 107° |
| 2026-04-17 07:49 | 34.79831 | 32.18115 | 2081 ft | 165 kts | 106° |
| 2026-04-17 07:50 | 34.79579 | 32.19495 | 2074 ft | 168 kts | 106° |
| 2026-04-17 07:50 | 34.79327 | 32.20894 | 2002 ft | 169 kts | 105° |
| 2026-04-17 07:50 | 34.79078 | 32.22289 | 1844 ft | 169 kts | 105° |
| 2026-04-17 07:50 | 34.78830 | 32.23670 | 1740 ft | 164 kts | 104° |
| 2026-04-17 07:51 | 34.78599 | 32.24954 | 1723 ft | 150 kts | 105° |
| 2026-04-17 07:51 | 34.78376 | 32.26189 | 1739 ft | 150 kts | 105° |
| 2026-04-17 07:51 | 34.78146 | 32.27445 | 1734 ft | 155 kts | 105° |
| 2026-04-17 07:51 | 34.77825 | 32.28701 | 1730 ft | 156 kts | 110° |
| 2026-04-17 07:52 | 34.77461 | 32.29940 | 1728 ft | 156 kts | 111° |
| 2026-04-17 07:52 | 34.77087 | 32.31187 | 1731 ft | 157 kts | 112° |
| 2026-04-17 07:52 | 34.76709 | 32.32431 | 1709 ft | 155 kts | 112° |
| 2026-04-17 07:52 | 34.76344 | 32.33629 | 1707 ft | 147 kts | 112° |
| 2026-04-17 07:53 | 34.76002 | 32.34752 | 1713 ft | 134 kts | 113° |
| 2026-04-17 07:53 | 34.75693 | 32.35764 | 1694 ft | 120 kts | 114° |
| 2026-04-17 07:53 | 34.75403 | 32.36714 | 1725 ft | 117 kts | 114° |
| 2026-04-17 07:53 | 34.75121 | 32.37636 | 1682 ft | 117 kts | 114° |
| 2026-04-17 07:54 | 34.74836 | 32.38569 | 1562 ft | 117 kts | 114° |
| 2026-04-17 07:54 | 34.74561 | 32.39469 | 1407 ft | 112 kts | 113° |
| 2026-04-17 07:54 | 34.74289 | 32.40359 | 1268 ft | 111 kts | 110° |
| 2026-04-17 07:54 | 34.74024 | 32.41221 | 1121 ft | 116 kts | 108° |
| 2026-04-17 07:55 | 34.73718 | 32.42234 | 950 ft | 130 kts | 108° |
| 2026-04-17 07:55 | 34.73420 | 32.43217 | 798 ft | 117 kts | 111° |
| 2026-04-17 07:55 | 34.73142 | 32.44122 | 637 ft | 111 kts | 110° |
| 2026-04-17 07:55 | 34.72872 | 32.45001 | 444 ft | 121 kts | 111° |
| 2026-04-17 07:56 | 34.72589 | 32.45965 | 287 ft | 116 kts | 114° |
| 2026-04-17 07:56 | 34.72288 | 32.46908 | 144 ft | 117 kts | 110° |
| 2026-04-17 07:56 | 34.72043 | 32.47744 | 41 ft | 91 kts | 111° |
| 2026-04-17 07:56 | 34.71881 | 32.48271 | 35 ft | 36 kts | 109° |
| 2026-04-17 07:57 | 34.71850 | 32.48391 | 36 ft | 8 kts | 103° |
| 2026-04-17 07:57 | 34.71859 | 32.48438 | 35 ft | 5 kts | 54° |
| 2026-04-17 07:57 | 34.71875 | 32.48449 | 36 ft | 2 kts | 19° |
| 2026-04-17 07:57 | 34.71890 | 32.48456 | 36 ft | 4 kts | 20° |
| 2026-04-17 07:58 | 34.71942 | 32.48481 | 36 ft | 14 kts | 22° |
| 2026-04-17 07:58 | 34.71952 | 32.48611 | 36 ft | 19 kts | 109° |
| 2026-04-17 07:58 | 34.71908 | 32.48759 | 35 ft | 18 kts | 110° |
| 2026-04-17 07:58 | 34.71864 | 32.48901 | 35 ft | 18 kts | 110° |
| 2026-04-17 07:59 | 34.71822 | 32.49038 | 33 ft | 17 kts | 110° |
| 2026-04-17 07:59 | 34.71783 | 32.49170 | 34 ft | 16 kts | 103° |
| 2026-04-17 07:59 | 34.71798 | 32.49233 | 34 ft | 1 kts | 30° |
| 2026-04-17 07:59 | 34.71817 | 32.49243 | 34 ft | 6 kts | 22° |
| 2026-04-17 08:00 | 34.71868 | 32.49277 | 33 ft | 10 kts | 43° |
| 2026-04-17 08:00 | 34.71891 | 32.49341 | 32 ft | 1 kts | 49° |
| 2026-04-17 08:00 | 34.71909 | 32.49352 | 33 ft | 0 kts | 15° |
| 2026-04-17 08:01 | 34.71937 | 32.49371 | 32 ft | 10 kts | 44° |